sensor_id;sensor_type;location;lat;lon;timestamp;temperature;humidity
15262;DHT22;7733;51.554;13.590;2022-09-13T00:01:14;13.20;99.90
15262;DHT22;7733;51.554;13.590;2022-09-13T00:03:40;13.20;99.90
15262;DHT22;7733;51.554;13.590;2022-09-13T00:06:14;13.10;99.90
15262;DHT22;7733;51.554;13.590;2022-09-13T00:08:42;13.20;99.90
15262;DHT22;7733;51.554;13.590;2022-09-13T00:11:20;13.20;99.90
15262;DHT22;7733;51.554;13.590;2022-09-13T00:13:49;13.20;99.90
15262;DHT22;7733;51.554;13.590;2022-09-13T00:16:17;13.20;99.90
15262;DHT22;7733;51.554;13.590;2022-09-13T00:18:44;13.20;99.90
15262;DHT22;7733;51.554;13.590;2022-09-13T00:21:13;13.10;99.90
15262;DHT22;7733;51.554;13.590;2022-09-13T00:23:49;13.10;99.90
15262;DHT22;7733;51.554;13.590;2022-09-13T00:26:19;13.00;99.90
15262;DHT22;7733;51.554;13.590;2022-09-13T00:28:51;12.90;99.90
15262;DHT22;7733;51.554;13.590;2022-09-13T00:31:18;13.00;99.90
15262;DHT22;7733;51.554;13.590;2022-09-13T00:33:46;12.90;99.90
15262;DHT22;7733;51.554;13.590;2022-09-13T00:36:12;13.00;99.90
15262;DHT22;7733;51.554;13.590;2022-09-13T00:38:40;12.90;99.90
15262;DHT22;7733;51.554;13.590;2022-09-13T00:41:11;12.80;99.90
15262;DHT22;7733;51.554;13.590;2022-09-13T00:46:38;13.00;99.90
15262;DHT22;7733;51.554;13.590;2022-09-13T00:49:14;13.00;99.90
15262;DHT22;7733;51.554;13.590;2022-09-13T00:51:49;13.10;99.90
15262;DHT22;7733;51.554;13.590;2022-09-13T00:54:21;13.00;99.90
15262;DHT22;7733;51.554;13.590;2022-09-13T00:56:59;12.90;99.90
15262;DHT22;7733;51.554;13.590;2022-09-13T00:59:37;12.90;99.90
15262;DHT22;7733;51.554;13.590;2022-09-13T01:02:07;12.90;99.90
15262;DHT22;7733;51.554;13.590;2022-09-13T01:04:34;12.90;99.90
15262;DHT22;7733;51.554;13.590;2022-09-13T01:07:05;12.90;99.90
15262;DHT22;7733;51.554;13.590;2022-09-13T01:09:39;12.90;99.90
15262;DHT22;7733;51.554;13.590;2022-09-13T01:12:32;12.80;99.90
15262;DHT22;7733;51.554;13.590;2022-09-13T01:15:03;12.80;99.90
15262;DHT22;7733;51.554;13.590;2022-09-13T01:17:31;12.70;99.90
15262;DHT22;7733;51.554;13.590;2022-09-13T01:19:59;12.70;99.90
15262;DHT22;7733;51.554;13.590;2022-09-13T01:22:44;12.60;99.90
15262;DHT22;7733;51.554;13.590;2022-09-13T01:25:54;12.60;99.90
15262;DHT22;7733;51.554;13.590;2022-09-13T01:32:16;12.60;99.90
15262;DHT22;7733;51.554;13.590;2022-09-13T01:37:53;12.40;99.90
15262;DHT22;7733;51.554;13.590;2022-09-13T01:41:03;12.60;99.90
15262;DHT22;7733;51.554;13.590;2022-09-13T01:43:48;12.60;99.90
15262;DHT22;7733;51.554;13.590;2022-09-13T01:46:29;12.50;99.90
15262;DHT22;7733;51.554;13.590;2022-09-13T01:52:43;12.50;99.90
15262;DHT22;7733;51.554;13.590;2022-09-13T01:55:22;12.40;99.90
15262;DHT22;7733;51.554;13.590;2022-09-13T01:58:21;12.40;99.90
15262;DHT22;7733;51.554;13.590;2022-09-13T02:01:02;12.40;99.90
15262;DHT22;7733;51.554;13.590;2022-09-13T02:03:36;12.40;99.90
15262;DHT22;7733;51.554;13.590;2022-09-13T02:06:08;12.50;99.90
15262;DHT22;7733;51.554;13.590;2022-09-13T02:08:42;12.50;99.90
15262;DHT22;7733;51.554;13.590;2022-09-13T02:11:16;12.50;99.90
15262;DHT22;7733;51.554;13.590;2022-09-13T02:16:30;12.40;99.90
15262;DHT22;7733;51.554;13.590;2022-09-13T02:19:11;12.20;99.90
15262;DHT22;7733;51.554;13.590;2022-09-13T02:21:46;12.20;99.90
15262;DHT22;7733;51.554;13.590;2022-09-13T02:24:23;12.20;99.90
15262;DHT22;7733;51.554;13.590;2022-09-13T02:26:55;12.20;99.90
15262;DHT22;7733;51.554;13.590;2022-09-13T02:29:27;12.20;99.90
15262;DHT22;7733;51.554;13.590;2022-09-13T02:32:37;12.30;99.90
15262;DHT22;7733;51.554;13.590;2022-09-13T02:35:11;12.40;99.90
15262;DHT22;7733;51.554;13.590;2022-09-13T02:37:43;12.40;99.90
15262;DHT22;7733;51.554;13.590;2022-09-13T02:40:17;12.30;99.90
15262;DHT22;7733;51.554;13.590;2022-09-13T02:43:00;12.10;99.90
15262;DHT22;7733;51.554;13.590;2022-09-13T02:45:35;12.10;99.90
15262;DHT22;7733;51.554;13.590;2022-09-13T02:48:20;12.10;99.90
15262;DHT22;7733;51.554;13.590;2022-09-13T02:56:55;12.10;99.90
15262;DHT22;7733;51.554;13.590;2022-09-13T02:59:23;12.10;99.90
15262;DHT22;7733;51.554;13.590;2022-09-13T03:02:00;12.10;99.90
15262;DHT22;7733;51.554;13.590;2022-09-13T03:04:29;12.10;99.90
15262;DHT22;7733;51.554;13.590;2022-09-13T03:06:57;12.10;99.90
15262;DHT22;7733;51.554;13.590;2022-09-13T03:09:23;12.10;99.90
15262;DHT22;7733;51.554;13.590;2022-09-13T03:12:12;12.10;99.90
15262;DHT22;7733;51.554;13.590;2022-09-13T03:15:54;12.10;99.90
15262;DHT22;7733;51.554;13.590;2022-09-13T03:22:09;12.10;99.90
15262;DHT22;7733;51.554;13.590;2022-09-13T03:25:18;12.00;99.90
15262;DHT22;7733;51.554;13.590;2022-09-13T03:28:04;12.10;99.90
15262;DHT22;7733;51.554;13.590;2022-09-13T03:30:48;12.10;99.90
15262;DHT22;7733;51.554;13.590;2022-09-13T03:36:43;12.10;99.90
15262;DHT22;7733;51.554;13.590;2022-09-13T03:39:39;12.10;99.90
15262;DHT22;7733;51.554;13.590;2022-09-13T03:45:20;12.00;99.90
15262;DHT22;7733;51.554;13.590;2022-09-13T03:47:51;12.00;99.90
15262;DHT22;7733;51.554;13.590;2022-09-13T03:50:20;12.10;99.90
15262;DHT22;7733;51.554;13.590;2022-09-13T03:52:57;12.00;99.90
15262;DHT22;7733;51.554;13.590;2022-09-13T03:55:28;12.00;99.90
15262;DHT22;7733;51.554;13.590;2022-09-13T03:57:56;12.00;99.90
15262;DHT22;7733;51.554;13.590;2022-09-13T04:00:22;11.90;99.90
15262;DHT22;7733;51.554;13.590;2022-09-13T04:02:48;11.90;99.90
15262;DHT22;7733;51.554;13.590;2022-09-13T04:05:15;11.80;99.90
15262;DHT22;7733;51.554;13.590;2022-09-13T04:07:41;11.80;99.90
15262;DHT22;7733;51.554;13.590;2022-09-13T04:10:07;11.90;99.90
15262;DHT22;7733;51.554;13.590;2022-09-13T04:12:33;11.90;99.90
15262;DHT22;7733;51.554;13.590;2022-09-13T04:14:59;11.80;99.90
15262;DHT22;7733;51.554;13.590;2022-09-13T04:17:25;11.80;99.90
15262;DHT22;7733;51.554;13.590;2022-09-13T04:19:50;11.80;99.90
15262;DHT22;7733;51.554;13.590;2022-09-13T04:22:16;11.80;99.90
15262;DHT22;7733;51.554;13.590;2022-09-13T04:24:42;11.70;99.90
15262;DHT22;7733;51.554;13.590;2022-09-13T04:27:08;11.70;99.90
15262;DHT22;7733;51.554;13.590;2022-09-13T04:29:34;11.70;99.90
15262;DHT22;7733;51.554;13.590;2022-09-13T04:32:00;11.80;99.90
15262;DHT22;7733;51.554;13.590;2022-09-13T04:34:26;11.80;99.90
15262;DHT22;7733;51.554;13.590;2022-09-13T04:36:52;11.80;99.90
15262;DHT22;7733;51.554;13.590;2022-09-13T04:39:19;11.80;99.90
15262;DHT22;7733;51.554;13.590;2022-09-13T04:41:47;11.80;99.90
15262;DHT22;7733;51.554;13.590;2022-09-13T04:44:15;11.80;99.90
15262;DHT22;7733;51.554;13.590;2022-09-13T04:46:41;11.80;99.90
15262;DHT22;7733;51.554;13.590;2022-09-13T04:49:10;11.80;99.90
15262;DHT22;7733;51.554;13.590;2022-09-13T04:51:37;11.90;99.90
15262;DHT22;7733;51.554;13.590;2022-09-13T04:54:03;11.80;99.90
15262;DHT22;7733;51.554;13.590;2022-09-13T04:56:29;11.80;99.90
15262;DHT22;7733;51.554;13.590;2022-09-13T04:58:55;11.80;99.90
15262;DHT22;7733;51.554;13.590;2022-09-13T05:01:22;11.80;99.90
15262;DHT22;7733;51.554;13.590;2022-09-13T05:03:50;11.90;99.90
15262;DHT22;7733;51.554;13.590;2022-09-13T05:06:18;11.90;99.90
15262;DHT22;7733;51.554;13.590;2022-09-13T05:08:48;11.90;99.90
15262;DHT22;7733;51.554;13.590;2022-09-13T05:11:20;12.00;99.90
15262;DHT22;7733;51.554;13.590;2022-09-13T05:13:51;11.90;99.90
15262;DHT22;7733;51.554;13.590;2022-09-13T05:16:19;12.00;99.90
15262;DHT22;7733;51.554;13.590;2022-09-13T05:18:45;12.00;99.90
15262;DHT22;7733;51.554;13.590;2022-09-13T05:21:11;12.10;99.90
15262;DHT22;7733;51.554;13.590;2022-09-13T05:23:36;12.10;99.90
15262;DHT22;7733;51.554;13.590;2022-09-13T05:26:04;12.20;99.90
15262;DHT22;7733;51.554;13.590;2022-09-13T05:28:33;12.20;99.90
15262;DHT22;7733;51.554;13.590;2022-09-13T05:31:04;12.20;99.90
15262;DHT22;7733;51.554;13.590;2022-09-13T05:33:37;12.30;99.90
15262;DHT22;7733;51.554;13.590;2022-09-13T05:36:04;12.30;99.90
15262;DHT22;7733;51.554;13.590;2022-09-13T05:38:31;12.40;99.90
15262;DHT22;7733;51.554;13.590;2022-09-13T05:40:58;12.50;99.90
15262;DHT22;7733;51.554;13.590;2022-09-13T05:43:27;12.60;99.90
15262;DHT22;7733;51.554;13.590;2022-09-13T05:48:32;12.80;99.90
15262;DHT22;7733;51.554;13.590;2022-09-13T05:51:15;12.90;99.90
15262;DHT22;7733;51.554;13.590;2022-09-13T05:53:44;13.00;99.90
15262;DHT22;7733;51.554;13.590;2022-09-13T05:56:14;13.00;99.90
15262;DHT22;7733;51.554;13.590;2022-09-13T05:58:43;13.10;99.90
15262;DHT22;7733;51.554;13.590;2022-09-13T06:01:11;13.10;99.90
15262;DHT22;7733;51.554;13.590;2022-09-13T06:03:38;13.20;99.90
15262;DHT22;7733;51.554;13.590;2022-09-13T06:06:04;13.30;99.90
15262;DHT22;7733;51.554;13.590;2022-09-13T06:08:31;13.30;99.90
15262;DHT22;7733;51.554;13.590;2022-09-13T06:11:00;13.30;99.90
15262;DHT22;7733;51.554;13.590;2022-09-13T06:13:28;13.40;99.90
15262;DHT22;7733;51.554;13.590;2022-09-13T06:15:55;13.50;99.90
15262;DHT22;7733;51.554;13.590;2022-09-13T06:18:23;13.60;99.90
15262;DHT22;7733;51.554;13.590;2022-09-13T06:20:49;13.60;99.90
15262;DHT22;7733;51.554;13.590;2022-09-13T06:23:16;13.70;99.90
15262;DHT22;7733;51.554;13.590;2022-09-13T06:25:42;13.80;99.90
15262;DHT22;7733;51.554;13.590;2022-09-13T06:28:08;13.80;99.90
15262;DHT22;7733;51.554;13.590;2022-09-13T06:30:35;13.80;99.90
15262;DHT22;7733;51.554;13.590;2022-09-13T06:33:00;13.90;99.90
15262;DHT22;7733;51.554;13.590;2022-09-13T06:35:26;14.00;99.90
15262;DHT22;7733;51.554;13.590;2022-09-13T06:37:56;14.10;99.90
15262;DHT22;7733;51.554;13.590;2022-09-13T06:40:23;14.30;99.90
15262;DHT22;7733;51.554;13.590;2022-09-13T06:42:49;14.30;99.90
15262;DHT22;7733;51.554;13.590;2022-09-13T06:45:15;14.50;99.90
15262;DHT22;7733;51.554;13.590;2022-09-13T06:47:41;14.50;99.90
15262;DHT22;7733;51.554;13.590;2022-09-13T06:50:07;14.60;99.90
15262;DHT22;7733;51.554;13.590;2022-09-13T06:52:33;14.70;99.90
15262;DHT22;7733;51.554;13.590;2022-09-13T06:54:59;14.80;99.90
15262;DHT22;7733;51.554;13.590;2022-09-13T06:57:25;14.80;99.90
15262;DHT22;7733;51.554;13.590;2022-09-13T06:59:54;14.90;99.90
15262;DHT22;7733;51.554;13.590;2022-09-13T07:02:19;14.90;99.90
15262;DHT22;7733;51.554;13.590;2022-09-13T07:04:45;14.90;99.90
15262;DHT22;7733;51.554;13.590;2022-09-13T07:07:10;15.00;99.90
15262;DHT22;7733;51.554;13.590;2022-09-13T07:09:36;15.10;99.90
15262;DHT22;7733;51.554;13.590;2022-09-13T07:12:04;15.10;99.90
15262;DHT22;7733;51.554;13.590;2022-09-13T07:14:31;15.10;99.90
15262;DHT22;7733;51.554;13.590;2022-09-13T07:16:57;15.10;99.90
15262;DHT22;7733;51.554;13.590;2022-09-13T07:19:24;15.10;99.90
15262;DHT22;7733;51.554;13.590;2022-09-13T07:21:52;15.10;99.90
15262;DHT22;7733;51.554;13.590;2022-09-13T07:24:19;15.10;99.90
15262;DHT22;7733;51.554;13.590;2022-09-13T07:26:46;15.10;99.90
15262;DHT22;7733;51.554;13.590;2022-09-13T07:29:15;15.10;99.90
15262;DHT22;7733;51.554;13.590;2022-09-13T07:31:46;15.10;99.90
15262;DHT22;7733;51.554;13.590;2022-09-13T07:34:15;15.10;99.90
15262;DHT22;7733;51.554;13.590;2022-09-13T07:36:43;15.00;99.90
15262;DHT22;7733;51.554;13.590;2022-09-13T07:39:11;15.00;99.90
15262;DHT22;7733;51.554;13.590;2022-09-13T07:41:37;15.00;99.90
15262;DHT22;7733;51.554;13.590;2022-09-13T07:44:04;14.90;99.90
15262;DHT22;7733;51.554;13.590;2022-09-13T07:46:33;14.90;99.90
15262;DHT22;7733;51.554;13.590;2022-09-13T07:49:06;14.90;99.90
15262;DHT22;7733;51.554;13.590;2022-09-13T07:51:33;14.80;99.90
15262;DHT22;7733;51.554;13.590;2022-09-13T07:54:03;14.80;99.90
15262;DHT22;7733;51.554;13.590;2022-09-13T07:56:35;14.80;99.90
15262;DHT22;7733;51.554;13.590;2022-09-13T07:59:04;14.80;99.90
15262;DHT22;7733;51.554;13.590;2022-09-13T08:01:39;14.90;99.90
15262;DHT22;7733;51.554;13.590;2022-09-13T08:04:09;14.90;99.90
15262;DHT22;7733;51.554;13.590;2022-09-13T08:06:37;15.10;99.90
15262;DHT22;7733;51.554;13.590;2022-09-13T08:09:05;15.20;99.90
15262;DHT22;7733;51.554;13.590;2022-09-13T08:11:34;15.40;99.90
15262;DHT22;7733;51.554;13.590;2022-09-13T08:14:02;15.50;99.90
15262;DHT22;7733;51.554;13.590;2022-09-13T08:16:29;15.60;99.90
15262;DHT22;7733;51.554;13.590;2022-09-13T08:18:57;15.70;99.90
15262;DHT22;7733;51.554;13.590;2022-09-13T08:21:24;15.70;99.90
15262;DHT22;7733;51.554;13.590;2022-09-13T08:23:55;15.70;99.90
15262;DHT22;7733;51.554;13.590;2022-09-13T08:26:23;15.90;99.90
15262;DHT22;7733;51.554;13.590;2022-09-13T08:28:55;15.90;99.90
15262;DHT22;7733;51.554;13.590;2022-09-13T08:31:26;16.00;99.90
15262;DHT22;7733;51.554;13.590;2022-09-13T08:33:52;16.10;99.90
15262;DHT22;7733;51.554;13.590;2022-09-13T08:36:19;16.20;99.90
15262;DHT22;7733;51.554;13.590;2022-09-13T08:38:54;16.20;99.90
15262;DHT22;7733;51.554;13.590;2022-09-13T08:44:23;16.50;99.90
15262;DHT22;7733;51.554;13.590;2022-09-13T08:47:15;16.70;99.90
15262;DHT22;7733;51.554;13.590;2022-09-13T08:50:44;16.70;99.90
15262;DHT22;7733;51.554;13.590;2022-09-13T08:53:19;16.80;99.90
15262;DHT22;7733;51.554;13.590;2022-09-13T08:56:05;16.90;99.90
15262;DHT22;7733;51.554;13.590;2022-09-13T09:02:12;17.00;99.90
15262;DHT22;7733;51.554;13.590;2022-09-13T09:05:12;17.10;99.90
15262;DHT22;7733;51.554;13.590;2022-09-13T09:08:03;17.20;99.90
15262;DHT22;7733;51.554;13.590;2022-09-13T09:10:42;17.20;99.90
15262;DHT22;7733;51.554;13.590;2022-09-13T09:13:22;17.30;99.90
15262;DHT22;7733;51.554;13.590;2022-09-13T09:15:57;17.40;99.90
15262;DHT22;7733;51.554;13.590;2022-09-13T09:18:39;17.40;99.90
15262;DHT22;7733;51.554;13.590;2022-09-13T09:21:15;17.40;99.90
15262;DHT22;7733;51.554;13.590;2022-09-13T09:23:50;17.50;99.90
15262;DHT22;7733;51.554;13.590;2022-09-13T09:28:53;17.60;99.90
15262;DHT22;7733;51.554;13.590;2022-09-13T09:31:45;17.70;99.90
15262;DHT22;7733;51.554;13.590;2022-09-13T09:37:14;17.80;99.90
15262;DHT22;7733;51.554;13.590;2022-09-13T09:39:46;17.90;99.90
15262;DHT22;7733;51.554;13.590;2022-09-13T09:42:15;17.90;99.90
15262;DHT22;7733;51.554;13.590;2022-09-13T09:44:54;18.00;99.90
15262;DHT22;7733;51.554;13.590;2022-09-13T09:47:27;18.10;99.90
15262;DHT22;7733;51.554;13.590;2022-09-13T09:50:06;18.00;99.90
15262;DHT22;7733;51.554;13.590;2022-09-13T09:55:28;18.10;99.90
15262;DHT22;7733;51.554;13.590;2022-09-13T09:58:00;18.10;99.90
15262;DHT22;7733;51.554;13.590;2022-09-13T10:00:31;18.20;99.90
15262;DHT22;7733;51.554;13.590;2022-09-13T10:03:05;18.30;99.90
15262;DHT22;7733;51.554;13.590;2022-09-13T10:05:42;18.30;99.90
15262;DHT22;7733;51.554;13.590;2022-09-13T10:08:25;18.30;99.90
15262;DHT22;7733;51.554;13.590;2022-09-13T10:10:58;18.40;99.90
15262;DHT22;7733;51.554;13.590;2022-09-13T10:13:25;18.50;99.90
15262;DHT22;7733;51.554;13.590;2022-09-13T10:15:58;18.50;99.90
15262;DHT22;7733;51.554;13.590;2022-09-13T10:18:26;18.50;99.90
15262;DHT22;7733;51.554;13.590;2022-09-13T10:21:05;18.60;99.90
15262;DHT22;7733;51.554;13.590;2022-09-13T10:23:45;18.60;99.90
15262;DHT22;7733;51.554;13.590;2022-09-13T10:28:54;18.90;99.90
15262;DHT22;7733;51.554;13.590;2022-09-13T10:31:32;19.00;99.90
15262;DHT22;7733;51.554;13.590;2022-09-13T10:34:03;19.10;99.90
15262;DHT22;7733;51.554;13.590;2022-09-13T10:36:47;19.20;99.90
15262;DHT22;7733;51.554;13.590;2022-09-13T10:39:19;19.20;99.90
15262;DHT22;7733;51.554;13.590;2022-09-13T10:41:53;19.20;99.90
15262;DHT22;7733;51.554;13.590;2022-09-13T10:44:42;19.40;99.90
15262;DHT22;7733;51.554;13.590;2022-09-13T10:47:17;19.50;99.90
15262;DHT22;7733;51.554;13.590;2022-09-13T10:49:49;19.50;99.90
15262;DHT22;7733;51.554;13.590;2022-09-13T10:52:28;19.60;99.90
15262;DHT22;7733;51.554;13.590;2022-09-13T11:00:11;19.70;99.90
15262;DHT22;7733;51.554;13.590;2022-09-13T11:02:56;19.70;99.90
15262;DHT22;7733;51.554;13.590;2022-09-13T11:05:55;19.70;99.90
15262;DHT22;7733;51.554;13.590;2022-09-13T11:11:52;19.90;99.90
15262;DHT22;7733;51.554;13.590;2022-09-13T11:14:50;19.90;99.90
15262;DHT22;7733;51.554;13.590;2022-09-13T11:17:56;19.90;99.90
15262;DHT22;7733;51.554;13.590;2022-09-13T11:20:56;19.90;99.90
15262;DHT22;7733;51.554;13.590;2022-09-13T11:23:47;19.90;99.90
15262;DHT22;7733;51.554;13.590;2022-09-13T11:26:38;19.90;99.90
15262;DHT22;7733;51.554;13.590;2022-09-13T11:35:06;20.00;99.90
15262;DHT22;7733;51.554;13.590;2022-09-13T11:37:53;20.00;99.90
15262;DHT22;7733;51.554;13.590;2022-09-13T11:40:38;20.10;99.90
15262;DHT22;7733;51.554;13.590;2022-09-13T11:49:59;20.60;99.90
15262;DHT22;7733;51.554;13.590;2022-09-13T11:52:58;20.60;99.90
15262;DHT22;7733;51.554;13.590;2022-09-13T11:55:52;20.70;99.90
15262;DHT22;7733;51.554;13.590;2022-09-13T11:58:35;20.70;99.90
15262;DHT22;7733;51.554;13.590;2022-09-13T12:01:09;20.70;99.90
15262;DHT22;7733;51.554;13.590;2022-09-13T12:06:22;20.70;99.90
15262;DHT22;7733;51.554;13.590;2022-09-13T12:08:54;20.90;99.90
15262;DHT22;7733;51.554;13.590;2022-09-13T12:11:31;20.90;99.90
15262;DHT22;7733;51.554;13.590;2022-09-13T12:14:06;21.10;99.90
15262;DHT22;7733;51.554;13.590;2022-09-13T12:16:44;21.40;99.90
15262;DHT22;7733;51.554;13.590;2022-09-13T12:19:24;21.60;99.90
15262;DHT22;7733;51.554;13.590;2022-09-13T12:22:07;21.60;99.90
15262;DHT22;7733;51.554;13.590;2022-09-13T12:24:46;21.70;99.90
15262;DHT22;7733;51.554;13.590;2022-09-13T12:27:38;21.70;99.90
15262;DHT22;7733;51.554;13.590;2022-09-13T12:30:40;21.70;99.90
15262;DHT22;7733;51.554;13.590;2022-09-13T12:33:13;21.60;99.90
15262;DHT22;7733;51.554;13.590;2022-09-13T12:35:48;21.90;99.90
15262;DHT22;7733;51.554;13.590;2022-09-13T12:42:27;21.80;99.90
15262;DHT22;7733;51.554;13.590;2022-09-13T12:59:59;21.50;99.90
15262;DHT22;7733;51.554;13.590;2022-09-13T13:05:26;21.30;99.90
15262;DHT22;7733;51.554;13.590;2022-09-13T13:11:05;21.40;99.90
15262;DHT22;7733;51.554;13.590;2022-09-13T13:13:44;21.50;99.90
15262;DHT22;7733;51.554;13.590;2022-09-13T13:16:46;21.60;99.90
15262;DHT22;7733;51.554;13.590;2022-09-13T13:19:33;21.70;99.90
15262;DHT22;7733;51.554;13.590;2022-09-13T13:25:36;21.70;99.90
15262;DHT22;7733;51.554;13.590;2022-09-13T13:31:08;21.70;99.90
15262;DHT22;7733;51.554;13.590;2022-09-13T13:34:41;21.60;99.90
15262;DHT22;7733;51.554;13.590;2022-09-13T13:36:44;21.50;99.90
15262;DHT22;7733;51.554;13.590;2022-09-13T13:45:15;21.60;99.90
15262;DHT22;7733;51.554;13.590;2022-09-13T13:48:07;21.60;99.90
15262;DHT22;7733;51.554;13.590;2022-09-13T13:53:43;21.70;99.90
15262;DHT22;7733;51.554;13.590;2022-09-13T13:56:45;21.70;99.90
15262;DHT22;7733;51.554;13.590;2022-09-13T13:59:25;21.80;99.90
15262;DHT22;7733;51.554;13.590;2022-09-13T14:01:57;21.70;99.90
15262;DHT22;7733;51.554;13.590;2022-09-13T14:04:57;21.70;99.90
15262;DHT22;7733;51.554;13.590;2022-09-13T14:10:26;21.80;99.90
15262;DHT22;7733;51.554;13.590;2022-09-13T14:19:28;21.80;99.90
15262;DHT22;7733;51.554;13.590;2022-09-13T14:22:24;21.80;99.90
15262;DHT22;7733;51.554;13.590;2022-09-13T14:24:56;21.70;99.90
15262;DHT22;7733;51.554;13.590;2022-09-13T14:27:29;21.60;99.90
15262;DHT22;7733;51.554;13.590;2022-09-13T14:30:01;21.60;99.90
15262;DHT22;7733;51.554;13.590;2022-09-13T14:32:45;21.60;99.90
15262;DHT22;7733;51.554;13.590;2022-09-13T14:35:33;21.70;99.90
15262;DHT22;7733;51.554;13.590;2022-09-13T14:38:21;21.70;99.90
15262;DHT22;7733;51.554;13.590;2022-09-13T14:40:56;21.70;99.90
15262;DHT22;7733;51.554;13.590;2022-09-13T14:43:25;21.80;99.90
15262;DHT22;7733;51.554;13.590;2022-09-13T14:46:09;21.90;99.90
15262;DHT22;7733;51.554;13.590;2022-09-13T14:48:58;21.90;99.90
15262;DHT22;7733;51.554;13.590;2022-09-13T14:54:15;22.00;99.90
15262;DHT22;7733;51.554;13.590;2022-09-13T14:56:50;22.30;99.90
15262;DHT22;7733;51.554;13.590;2022-09-13T14:59:48;22.50;99.90
15262;DHT22;7733;51.554;13.590;2022-09-13T15:02:22;22.60;99.90
15262;DHT22;7733;51.554;13.590;2022-09-13T15:04:53;22.50;99.90
15262;DHT22;7733;51.554;13.590;2022-09-13T15:07:34;22.50;99.90
15262;DHT22;7733;51.554;13.590;2022-09-13T15:18:01;21.90;99.90
15262;DHT22;7733;51.554;13.590;2022-09-13T15:23:47;21.90;99.90
15262;DHT22;7733;51.554;13.590;2022-09-13T15:26:22;21.80;99.90
15262;DHT22;7733;51.554;13.590;2022-09-13T15:28:52;21.80;99.90
15262;DHT22;7733;51.554;13.590;2022-09-13T15:31:31;21.80;99.90
15262;DHT22;7733;51.554;13.590;2022-09-13T15:34:21;21.70;99.90
15262;DHT22;7733;51.554;13.590;2022-09-13T15:39:48;21.50;99.90
15262;DHT22;7733;51.554;13.590;2022-09-13T15:42:25;21.50;99.90
15262;DHT22;7733;51.554;13.590;2022-09-13T15:44:51;21.50;99.90
15262;DHT22;7733;51.554;13.590;2022-09-13T15:47:17;21.50;99.90
15262;DHT22;7733;51.554;13.590;2022-09-13T15:49:49;21.40;99.90
15262;DHT22;7733;51.554;13.590;2022-09-13T15:52:17;21.40;99.90
15262;DHT22;7733;51.554;13.590;2022-09-13T15:54:47;21.40;99.90
15262;DHT22;7733;51.554;13.590;2022-09-13T15:57:24;21.40;99.90
15262;DHT22;7733;51.554;13.590;2022-09-13T15:59:52;21.40;99.90
15262;DHT22;7733;51.554;13.590;2022-09-13T16:02:21;21.30;99.90
15262;DHT22;7733;51.554;13.590;2022-09-13T16:04:52;21.30;99.90
15262;DHT22;7733;51.554;13.590;2022-09-13T16:07:19;21.30;99.90
15262;DHT22;7733;51.554;13.590;2022-09-13T16:09:45;21.20;99.90
15262;DHT22;7733;51.554;13.590;2022-09-13T16:12:12;21.20;99.90
15262;DHT22;7733;51.554;13.590;2022-09-13T16:14:38;21.20;99.90
15262;DHT22;7733;51.554;13.590;2022-09-13T16:17:18;21.30;99.90
15262;DHT22;7733;51.554;13.590;2022-09-13T16:19:44;21.20;99.90
15262;DHT22;7733;51.554;13.590;2022-09-13T16:22:10;21.30;99.90
15262;DHT22;7733;51.554;13.590;2022-09-13T16:24:35;21.30;99.90
15262;DHT22;7733;51.554;13.590;2022-09-13T16:27:02;21.30;99.90
15262;DHT22;7733;51.554;13.590;2022-09-13T16:29:28;21.30;99.90
15262;DHT22;7733;51.554;13.590;2022-09-13T16:31:54;21.30;99.90
15262;DHT22;7733;51.554;13.590;2022-09-13T16:34:22;21.30;99.90
15262;DHT22;7733;51.554;13.590;2022-09-13T16:36:48;21.20;99.90
15262;DHT22;7733;51.554;13.590;2022-09-13T16:39:13;21.20;99.90
15262;DHT22;7733;51.554;13.590;2022-09-13T16:41:39;21.20;99.90
15262;DHT22;7733;51.554;13.590;2022-09-13T16:44:05;21.20;99.90
15262;DHT22;7733;51.554;13.590;2022-09-13T16:46:31;21.20;99.90
15262;DHT22;7733;51.554;13.590;2022-09-13T16:48:58;21.10;99.90
15262;DHT22;7733;51.554;13.590;2022-09-13T16:51:24;21.10;99.90
15262;DHT22;7733;51.554;13.590;2022-09-13T16:53:51;21.00;99.90
15262;DHT22;7733;51.554;13.590;2022-09-13T16:56:20;20.90;99.90
15262;DHT22;7733;51.554;13.590;2022-09-13T16:58:49;20.80;99.90
15262;DHT22;7733;51.554;13.590;2022-09-13T17:01:24;20.80;99.90
15262;DHT22;7733;51.554;13.590;2022-09-13T17:03:52;20.70;99.90
15262;DHT22;7733;51.554;13.590;2022-09-13T17:06:19;20.50;99.90
15262;DHT22;7733;51.554;13.590;2022-09-13T17:08:52;20.50;99.90
15262;DHT22;7733;51.554;13.590;2022-09-13T17:11:25;20.50;99.90
15262;DHT22;7733;51.554;13.590;2022-09-13T17:13:53;20.40;99.90
15262;DHT22;7733;51.554;13.590;2022-09-13T17:16:28;20.30;99.90
15262;DHT22;7733;51.554;13.590;2022-09-13T17:18:58;20.30;99.90
15262;DHT22;7733;51.554;13.590;2022-09-13T17:21:26;20.20;99.90
15262;DHT22;7733;51.554;13.590;2022-09-13T17:23:53;20.00;99.90
15262;DHT22;7733;51.554;13.590;2022-09-13T17:26:19;19.80;99.90
15262;DHT22;7733;51.554;13.590;2022-09-13T17:28:46;19.90;99.90
15262;DHT22;7733;51.554;13.590;2022-09-13T17:31:11;19.90;99.90
15262;DHT22;7733;51.554;13.590;2022-09-13T17:33:37;20.00;99.90
15262;DHT22;7733;51.554;13.590;2022-09-13T17:36:05;20.00;99.90
15262;DHT22;7733;51.554;13.590;2022-09-13T17:38:33;20.00;99.90
15262;DHT22;7733;51.554;13.590;2022-09-13T17:41:20;19.90;99.90
15262;DHT22;7733;51.554;13.590;2022-09-13T17:43:46;19.90;99.90
15262;DHT22;7733;51.554;13.590;2022-09-13T17:46:14;19.90;99.90
15262;DHT22;7733;51.554;13.590;2022-09-13T17:48:42;19.80;99.90
15262;DHT22;7733;51.554;13.590;2022-09-13T17:51:13;19.70;99.90
15262;DHT22;7733;51.554;13.590;2022-09-13T17:53:43;19.60;99.90
15262;DHT22;7733;51.554;13.590;2022-09-13T17:56:11;19.60;99.90
15262;DHT22;7733;51.554;13.590;2022-09-13T17:58:41;19.40;99.90
15262;DHT22;7733;51.554;13.590;2022-09-13T18:01:08;19.40;99.90
15262;DHT22;7733;51.554;13.590;2022-09-13T18:03:35;19.40;99.90
15262;DHT22;7733;51.554;13.590;2022-09-13T18:06:04;19.40;99.90
15262;DHT22;7733;51.554;13.590;2022-09-13T18:08:33;19.20;99.90
15262;DHT22;7733;51.554;13.590;2022-09-13T18:11:06;19.20;99.90
15262;DHT22;7733;51.554;13.590;2022-09-13T18:13:34;19.00;99.90
15262;DHT22;7733;51.554;13.590;2022-09-13T18:16:09;19.00;99.90
15262;DHT22;7733;51.554;13.590;2022-09-13T18:18:47;18.90;99.90
15262;DHT22;7733;51.554;13.590;2022-09-13T18:21:13;18.80;99.90
15262;DHT22;7733;51.554;13.590;2022-09-13T18:23:42;18.60;99.90
15262;DHT22;7733;51.554;13.590;2022-09-13T18:26:12;18.60;99.90
15262;DHT22;7733;51.554;13.590;2022-09-13T18:28:40;18.60;99.90
15262;DHT22;7733;51.554;13.590;2022-09-13T18:31:09;18.60;99.90
15262;DHT22;7733;51.554;13.590;2022-09-13T18:33:38;18.70;99.90